createdAt,value
2018-03-21T00:01:33.302Z,2.20
2018-03-21T00:04:00.950Z,2.20
2018-03-21T00:06:42.591Z,2.10
2018-03-21T00:09:11.334Z,1.90
2018-03-21T00:11:39.454Z,1.90
2018-03-21T00:14:07.094Z,1.90
2018-03-21T00:16:35.507Z,1.90
2018-03-21T00:19:04.029Z,1.80
2018-03-21T00:21:31.723Z,1.80
2018-03-21T00:23:59.396Z,1.80
2018-03-21T00:26:27.088Z,1.90
2018-03-21T00:28:55.561Z,1.90
2018-03-21T00:31:24.038Z,1.90
2018-03-21T00:33:53.026Z,1.80
2018-03-21T00:36:20.763Z,1.80
2018-03-21T00:38:48.557Z,1.80
2018-03-21T00:41:17.194Z,1.80
2018-03-21T00:43:44.930Z,1.80
2018-03-21T00:46:14.582Z,1.60
2018-03-21T00:48:42.275Z,1.40
2018-03-21T00:51:10.023Z,1.30
2018-03-21T00:53:37.756Z,1.10
2018-03-21T00:56:05.441Z,1.10
2018-03-21T00:58:33.144Z,1.10
2018-03-21T01:01:01.301Z,1.20
2018-03-21T01:03:29.021Z,1.10
2018-03-21T01:05:56.900Z,1.10
2018-03-21T01:08:24.610Z,1.10
2018-03-21T01:10:53.247Z,1.00
2018-03-21T01:13:20.981Z,1.10
2018-03-21T01:15:48.684Z,1.00
2018-03-21T01:18:16.994Z,1.10
2018-03-21T01:20:45.488Z,1.00
2018-03-21T01:23:13.185Z,1.00
2018-03-21T01:25:40.907Z,0.90
2018-03-21T01:28:09.439Z,0.90
2018-03-21T01:30:37.102Z,0.90
2018-03-21T01:33:04.782Z,0.90
2018-03-21T01:35:32.467Z,0.90
2018-03-21T01:38:00.162Z,1.00
2018-03-21T01:40:28.288Z,0.80
2018-03-21T01:42:56.009Z,0.90
2018-03-21T01:45:23.890Z,1.00
2018-03-21T01:47:51.633Z,1.00
2018-03-21T01:50:19.401Z,1.00
2018-03-21T01:52:47.210Z,0.90
2018-03-21T01:55:15.725Z,0.90
2018-03-21T01:57:43.429Z,0.90
2018-03-21T02:00:11.124Z,0.90
2018-03-21T02:02:39.599Z,0.90
2018-03-21T02:05:08.094Z,1.00
2018-03-21T02:07:36.567Z,0.90
2018-03-21T02:10:04.275Z,-0.50
2018-03-21T02:12:32.874Z,0.80
2018-03-21T02:15:00.618Z,0.70
2018-03-21T02:17:29.218Z,0.60
2018-03-21T02:19:57.707Z,0.60
2018-03-21T02:22:25.397Z,0.60
2018-03-21T02:24:53.907Z,0.60
2018-03-21T02:27:22.544Z,0.60
2018-03-21T02:29:50.227Z,0.70
2018-03-21T02:32:17.971Z,0.70
2018-03-21T02:34:45.589Z,0.60
2018-03-21T02:37:13.369Z,0.60
2018-03-21T02:39:41.013Z,0.50
2018-03-21T02:42:08.740Z,0.50
2018-03-21T02:44:37.292Z,0.50
2018-03-21T02:47:05.090Z,0.50
2018-03-21T02:49:33.567Z,0.50
2018-03-21T02:52:01.248Z,0.50
2018-03-21T02:54:29.009Z,0.40
2018-03-21T02:56:56.698Z,0.40
2018-03-21T02:59:25.194Z,0.60
2018-03-21T03:01:52.909Z,0.60
2018-03-21T03:04:20.647Z,0.50
2018-03-21T03:06:49.075Z,0.40
2018-03-21T03:09:16.743Z,0.30
2018-03-21T03:11:45.427Z,0.20
2018-03-21T03:14:13.387Z,0.30
2018-03-21T03:16:41.061Z,0.20
2018-03-21T03:19:08.748Z,0.10
2018-03-21T03:21:37.445Z,0.20
2018-03-21T03:24:05.172Z,0.10
2018-03-21T03:26:32.906Z,0.10
2018-03-21T03:29:00.631Z,0.10
2018-03-21T03:31:28.323Z,0.20
2018-03-21T03:33:55.992Z,0.10
2018-03-21T03:36:24.670Z,0.10
2018-03-21T03:38:52.338Z,0.10
2018-03-21T03:41:20.046Z,0.20
2018-03-21T03:43:47.729Z,0.00
2018-03-21T03:46:15.463Z,0.00
2018-03-21T03:48:43.218Z,-0.20
2018-03-21T03:51:11.739Z,-0.10
2018-03-21T03:53:39.631Z,-0.10
2018-03-21T03:56:07.347Z,-0.30
2018-03-21T03:58:35.107Z,-0.30
2018-03-21T04:01:02.858Z,-0.30
2018-03-21T04:03:30.495Z,-0.20
2018-03-21T04:05:58.191Z,-0.20
2018-03-21T04:08:25.888Z,-0.20
2018-03-21T04:10:54.549Z,-0.20
2018-03-21T04:13:22.229Z,-0.10
2018-03-21T04:15:49.941Z,-0.10
2018-03-21T04:18:17.689Z,-0.10
2018-03-21T04:20:46.099Z,-0.20
2018-03-21T04:23:13.993Z,-0.10
2018-03-21T04:25:41.730Z,-0.10
2018-03-21T04:28:09.454Z,-0.10
2018-03-21T04:30:37.203Z,-0.30
2018-03-21T04:33:05.676Z,-0.40
2018-03-21T04:35:33.319Z,-0.40
2018-03-21T04:38:01.017Z,-0.50
2018-03-21T04:40:29.571Z,-0.60
2018-03-21T04:42:57.286Z,-0.60
2018-03-21T04:45:24.954Z,-0.70
2018-03-21T04:47:52.674Z,-0.70
2018-03-21T04:50:21.129Z,-0.70
2018-03-21T04:52:48.836Z,-0.80
2018-03-21T04:55:16.604Z,-0.80
2018-03-21T04:57:44.289Z,-0.70
2018-03-21T05:00:12.079Z,-0.80
2018-03-21T05:02:39.721Z,-0.70
2018-03-21T05:05:07.443Z,-0.70
2018-03-21T05:07:36.044Z,-0.60
2018-03-21T05:10:03.813Z,-0.70
2018-03-21T05:12:31.549Z,-0.50
2018-03-21T05:15:00.023Z,-0.60
2018-03-21T05:17:29.225Z,-0.60
2018-03-21T05:19:59.139Z,-0.70
2018-03-21T05:22:26.836Z,-0.70
2018-03-21T05:24:56.372Z,-0.60
2018-03-21T05:27:24.100Z,-0.70
2018-03-21T05:29:51.903Z,-0.80
2018-03-21T05:32:19.680Z,-0.80
2018-03-21T05:34:48.197Z,-0.70
2018-03-21T05:37:15.879Z,-0.70
2018-03-21T05:39:43.657Z,-0.80
2018-03-21T05:42:11.382Z,-0.70
2018-03-21T05:44:39.878Z,-0.60
2018-03-21T05:47:08.385Z,-0.60
2018-03-21T05:49:36.588Z,-0.70
2018-03-21T05:52:04.384Z,-0.70
2018-03-21T05:54:32.259Z,-0.70
2018-03-21T05:56:59.990Z,-0.70
2018-03-21T05:59:27.707Z,-0.80
2018-03-21T06:01:55.467Z,-0.80
2018-03-21T06:04:23.449Z,-0.70
2018-03-21T06:06:52.065Z,-0.60
2018-03-21T06:09:21.345Z,-0.50
2018-03-21T06:11:49.025Z,-0.50
2018-03-21T06:14:16.685Z,-0.50
2018-03-21T06:16:44.427Z,-0.50
2018-03-21T06:19:12.302Z,-0.50
2018-03-21T06:21:40.107Z,-0.40
2018-03-21T06:24:07.859Z,-0.30
2018-03-21T06:26:36.329Z,-0.30
2018-03-21T06:29:04.042Z,-0.30
2018-03-21T06:31:32.455Z,-0.30
2018-03-21T06:34:00.348Z,-0.20
2018-03-21T06:36:28.063Z,-0.30
2018-03-21T06:38:55.885Z,-0.10
2018-03-21T06:41:24.476Z,-0.10
2018-03-21T06:43:52.296Z,-0.10
2018-03-21T06:46:20.758Z,0.10
2018-03-21T06:48:48.457Z,0.00
2018-03-21T06:51:18.356Z,0.10
2018-03-21T06:53:46.953Z,0.10
2018-03-21T06:56:15.489Z,0.20
2018-03-21T06:58:43.962Z,0.20
2018-03-21T07:01:11.679Z,0.10
2018-03-21T07:03:39.516Z,0.20
2018-03-21T07:06:07.576Z,0.20
2018-03-21T07:08:35.549Z,0.20
2018-03-21T07:11:22.916Z,0.30
2018-03-21T07:14:02.641Z,0.20
2018-03-21T07:16:45.059Z,0.30
2018-03-21T07:19:13.126Z,0.40
2018-03-21T07:21:40.886Z,0.30
2018-03-21T07:24:09.460Z,0.40
2018-03-21T07:26:37.153Z,0.40
2018-03-21T07:29:06.005Z,0.50
2018-03-21T07:31:33.716Z,0.60
2018-03-21T07:34:01.472Z,0.60
2018-03-21T07:36:29.212Z,0.70
2018-03-21T07:38:56.892Z,0.70
2018-03-21T07:41:24.659Z,0.60
2018-03-21T07:43:52.888Z,0.70
2018-03-21T07:46:20.651Z,0.80
2018-03-21T07:48:48.464Z,0.90
2018-03-21T07:51:16.958Z,0.90
2018-03-21T07:53:44.681Z,0.90
2018-03-21T07:56:13.428Z,1.00
2018-03-21T07:58:41.132Z,1.10
2018-03-21T08:01:08.862Z,1.20
2018-03-21T08:03:36.716Z,1.20
2018-03-21T08:06:04.483Z,1.30
2018-03-21T08:08:32.171Z,1.40
2018-03-21T08:10:59.930Z,1.40
2018-03-21T08:13:27.613Z,1.40
2018-03-21T08:15:55.394Z,1.30
2018-03-21T08:18:23.115Z,1.30
2018-03-21T08:20:50.873Z,1.30
2018-03-21T08:23:18.632Z,1.30
2018-03-21T08:25:46.423Z,1.40
2018-03-21T08:28:14.434Z,1.40
2018-03-21T08:30:42.159Z,1.40
2018-03-21T08:33:10.283Z,1.50
2018-03-21T08:35:38.681Z,1.70
2018-03-21T08:38:06.468Z,1.70
2018-03-21T08:40:34.797Z,1.70
2018-03-21T08:43:03.528Z,1.80
2018-03-21T08:45:31.198Z,1.90
2018-03-21T08:47:58.958Z,2.00
2018-03-21T08:50:26.639Z,2.10
2018-03-21T08:52:55.193Z,2.10
2018-03-21T08:55:22.968Z,2.10
2018-03-21T08:57:50.743Z,2.10
2018-03-21T09:00:19.238Z,2.50
2018-03-21T09:02:47.056Z,2.40
2018-03-21T09:05:15.698Z,2.60
2018-03-21T09:07:43.415Z,2.90
2018-03-21T09:10:11.136Z,2.90
2018-03-21T09:12:38.894Z,2.90
2018-03-21T09:15:06.665Z,3.10
2018-03-21T09:17:34.988Z,3.20
2018-03-21T09:20:02.740Z,3.40
2018-03-21T09:22:31.363Z,4.30
2018-03-21T09:24:59.916Z,4.90
2018-03-21T09:27:27.713Z,4.90
2018-03-21T09:29:55.433Z,5.50
2018-03-21T09:32:23.153Z,6.00
2018-03-21T09:34:50.962Z,6.40
2018-03-21T09:37:18.681Z,6.60
2018-03-21T09:39:46.466Z,6.40
2018-03-21T09:42:14.285Z,5.80
2018-03-21T09:44:42.765Z,6.60
2018-03-21T09:47:11.236Z,6.60
2018-03-21T09:49:39.787Z,6.50
2018-03-21T09:52:07.605Z,6.00
2018-03-21T09:54:40.922Z,5.70
2018-03-21T09:57:08.664Z,5.10
2018-03-21T09:59:37.385Z,5.10
2018-03-21T10:02:05.286Z,5.10
2018-03-21T10:04:33.013Z,4.70
2018-03-21T10:07:00.778Z,4.80
2018-03-21T10:09:28.519Z,4.60
2018-03-21T10:11:56.237Z,4.80
2018-03-21T10:14:24.273Z,5.10
2018-03-21T10:16:53.837Z,5.30
2018-03-21T10:19:21.512Z,5.60
2018-03-21T10:21:49.234Z,5.60
2018-03-21T10:24:17.831Z,5.70
2018-03-21T10:26:45.513Z,6.00
2018-03-21T10:29:14.845Z,6.00
2018-03-21T10:31:42.586Z,6.00
2018-03-21T10:34:10.419Z,6.10
2018-03-21T10:36:38.161Z,6.20
2018-03-21T10:39:05.982Z,6.70
2018-03-21T10:41:34.490Z,6.90
2018-03-21T10:44:02.338Z,7.00
2018-03-21T10:46:31.567Z,6.80
2018-03-21T10:48:59.311Z,7.40
2018-03-21T10:51:27.052Z,7.30
2018-03-21T10:53:54.795Z,7.10
2018-03-21T10:56:23.702Z,7.50
2018-03-21T10:58:51.954Z,7.50
2018-03-21T11:01:25.378Z,7.70
2018-03-21T11:03:55.991Z,7.50
2018-03-21T11:06:23.840Z,7.70
2018-03-21T11:08:52.458Z,7.90
2018-03-21T11:11:21.051Z,7.70
2018-03-21T11:13:48.772Z,7.60
2018-03-21T11:16:17.318Z,8.30
2018-03-21T11:18:45.116Z,8.30
2018-03-21T11:21:12.858Z,8.40
2018-03-21T11:23:40.596Z,8.10
2018-03-21T11:26:08.371Z,7.70
2018-03-21T11:28:37.045Z,7.50
2018-03-21T11:31:05.622Z,7.50
2018-03-21T11:33:33.331Z,7.70
2018-03-21T11:36:01.102Z,7.70
2018-03-21T11:38:28.822Z,7.40
2018-03-21T11:40:56.637Z,7.70
2018-03-21T11:43:24.415Z,7.60
2018-03-21T11:45:53.016Z,7.70
2018-03-21T11:48:20.748Z,7.70
2018-03-21T11:50:48.483Z,7.40
2018-03-21T11:53:16.338Z,7.40
2018-03-21T11:55:44.138Z,7.10
2018-03-21T11:58:12.710Z,7.20
2018-03-21T12:00:40.458Z,7.00
2018-03-21T12:03:08.405Z,6.50
2018-03-21T12:05:36.225Z,6.50
2018-03-21T12:08:04.795Z,6.80
2018-03-21T12:10:32.558Z,6.80
2018-03-21T12:13:02.233Z,7.00
2018-03-21T12:15:29.966Z,7.10
2018-03-21T12:17:57.734Z,7.20
2018-03-21T12:20:25.727Z,7.30
2018-03-21T12:22:54.352Z,7.20
2018-03-21T12:25:22.047Z,7.30
2018-03-21T12:27:50.721Z,7.20
2018-03-21T12:30:19.232Z,7.60
2018-03-21T12:32:47.762Z,7.50
2018-03-21T12:35:15.506Z,7.50
2018-03-21T12:37:43.362Z,7.50
2018-03-21T12:40:11.221Z,7.50
2018-03-21T12:42:38.979Z,7.40
2018-03-21T12:45:06.696Z,7.20
2018-03-21T12:47:35.181Z,7.40
2018-03-21T12:50:03.855Z,7.70
2018-03-21T12:52:31.540Z,7.60
2018-03-21T12:54:59.621Z,7.80
2018-03-21T12:57:28.099Z,7.80
2018-03-21T12:59:55.894Z,7.80
2018-03-21T13:02:24.666Z,7.80
2018-03-21T13:04:52.374Z,7.70
2018-03-21T13:07:20.824Z,7.90
2018-03-21T13:09:48.560Z,7.90
2018-03-21T13:12:16.270Z,7.70
2018-03-21T13:14:44.013Z,7.90
2018-03-21T13:17:11.693Z,8.10
2018-03-21T13:19:39.429Z,8.00
2018-03-21T13:22:07.215Z,8.20
2018-03-21T13:24:37.879Z,8.50
2018-03-21T13:27:05.620Z,8.50
2018-03-21T13:29:33.381Z,8.30
2018-03-21T13:32:01.172Z,8.60
2018-03-21T13:34:29.644Z,8.70
2018-03-21T13:36:57.401Z,8.70
2018-03-21T13:39:25.105Z,8.80
2018-03-21T13:41:52.837Z,8.60
2018-03-21T13:44:20.734Z,8.40
2018-03-21T13:46:48.446Z,8.10
2018-03-21T13:49:16.171Z,7.80
2018-03-21T13:51:43.899Z,7.90
2018-03-21T13:54:11.583Z,8.00
2018-03-21T13:56:39.384Z,8.00
2018-03-21T13:59:07.098Z,7.90
2018-03-21T14:01:35.564Z,7.80
2018-03-21T14:04:03.415Z,7.70
2018-03-21T14:06:31.178Z,7.90
2018-03-21T14:08:58.954Z,7.80
2018-03-21T14:11:26.681Z,7.70
2018-03-21T14:13:54.505Z,7.60
2018-03-21T14:16:23.007Z,7.80
2018-03-21T14:18:50.755Z,7.80
2018-03-21T14:21:18.577Z,7.80
2018-03-21T14:23:46.434Z,8.00
2018-03-21T14:26:14.115Z,7.80
2018-03-21T14:28:42.321Z,7.60
2018-03-21T14:31:10.055Z,7.70
2018-03-21T14:33:38.530Z,7.00
2018-03-21T14:36:07.115Z,7.10
2018-03-21T14:38:35.914Z,7.10
2018-03-21T14:41:04.386Z,7.60
2018-03-21T14:43:32.955Z,7.70
2018-03-21T14:46:00.740Z,7.70
2018-03-21T14:48:29.238Z,7.40
2018-03-21T14:50:57.801Z,7.40
2018-03-21T14:53:25.506Z,7.40
2018-03-21T14:55:53.249Z,7.50
2018-03-21T14:58:22.056Z,7.10
2018-03-21T15:00:49.798Z,6.90
2018-03-21T15:03:18.363Z,7.40
2018-03-21T15:05:46.326Z,7.40
2018-03-21T15:08:14.111Z,7.70
2018-03-21T15:10:42.011Z,7.50
2018-03-21T15:13:09.705Z,7.60
2018-03-21T15:15:37.467Z,7.30
2018-03-21T15:37:42.223Z,7.40
2018-03-21T15:40:12.025Z,7.30
2018-03-21T15:42:40.563Z,7.20
2018-03-21T15:45:09.227Z,6.90
2018-03-21T15:47:37.785Z,6.40
2018-03-21T15:50:05.644Z,6.40
2018-03-21T15:52:33.422Z,6.30
2018-03-21T15:55:01.383Z,6.20
2018-03-21T15:57:29.082Z,6.10
2018-03-21T15:59:57.496Z,6.10
2018-03-21T16:02:25.201Z,6.10
2018-03-21T16:04:52.924Z,6.10
2018-03-21T16:07:20.635Z,6.20
2018-03-21T16:09:49.203Z,6.20
2018-03-21T16:12:16.956Z,6.20
2018-03-21T16:14:45.720Z,6.30
2018-03-21T16:17:13.416Z,6.20
2018-03-21T16:19:41.247Z,6.30
2018-03-21T16:22:09.317Z,6.10
2018-03-21T16:27:09.398Z,6.00
2018-03-21T16:29:37.279Z,6.00
2018-03-21T16:32:05.799Z,6.00
2018-03-21T16:34:33.528Z,6.00
2018-03-21T16:37:01.391Z,5.90
2018-03-21T16:39:29.215Z,6.00
2018-03-21T16:41:57.712Z,5.90
2018-03-21T16:44:25.350Z,6.00
2018-03-21T16:46:53.924Z,5.90
2018-03-21T16:49:21.616Z,5.90
2018-03-21T16:51:49.404Z,5.80
2018-03-21T16:54:22.536Z,5.70
2018-03-21T16:56:52.821Z,5.70
2018-03-21T16:59:22.108Z,5.80
2018-03-21T17:01:50.067Z,5.70
2018-03-21T17:04:17.851Z,5.70
2018-03-21T17:06:45.596Z,5.60
2018-03-21T17:09:13.590Z,5.50
2018-03-21T17:11:41.773Z,5.60
2018-03-21T17:14:09.469Z,5.50
2018-03-21T17:16:37.213Z,5.60
2018-03-21T17:19:04.919Z,5.50
2018-03-21T17:21:32.779Z,5.30
2018-03-21T17:24:00.649Z,5.40
2018-03-21T17:26:28.427Z,5.40
2018-03-21T17:28:56.901Z,5.40
2018-03-21T17:31:26.336Z,5.40
2018-03-21T17:33:54.070Z,5.40
2018-03-21T17:36:22.054Z,5.30
2018-03-21T17:38:49.894Z,5.20
2018-03-21T17:41:17.733Z,5.40
2018-03-21T17:43:45.573Z,5.30
2018-03-21T17:46:13.258Z,5.30
2018-03-21T17:48:42.310Z,5.20
2018-03-21T17:51:10.438Z,5.20
2018-03-21T17:53:38.202Z,5.20
2018-03-21T17:56:07.217Z,5.30
2018-03-21T17:58:34.975Z,5.20
2018-03-21T18:01:03.004Z,5.20
2018-03-21T18:03:31.674Z,5.10
2018-03-21T18:05:59.368Z,5.00
2018-03-21T18:08:27.688Z,4.90
2018-03-21T18:10:56.207Z,4.90
2018-03-21T18:13:25.358Z,5.00
2018-03-21T18:15:53.017Z,4.90
2018-03-21T18:18:20.809Z,4.90
2018-03-21T18:20:48.517Z,4.90
2018-03-21T18:23:16.321Z,4.80
2018-03-21T18:25:44.860Z,4.80
2018-03-21T18:28:13.468Z,4.80
2018-03-21T18:30:42.145Z,4.80
2018-03-21T18:33:10.712Z,4.70
2018-03-21T18:35:38.455Z,4.70
2018-03-21T18:38:06.960Z,4.70
2018-03-21T18:40:34.686Z,4.60
2018-03-21T18:43:02.416Z,4.60
2018-03-21T18:45:30.467Z,4.50
2018-03-21T18:47:58.331Z,4.30
2018-03-21T18:50:32.650Z,4.20
2018-03-21T18:53:00.710Z,4.10
2018-03-21T18:55:40.408Z,4.10
2018-03-21T18:58:08.059Z,4.20
2018-03-21T19:00:37.053Z,4.20
2018-03-21T19:03:04.858Z,4.10
2018-03-21T19:05:32.796Z,4.20
2018-03-21T19:08:02.603Z,4.10
2018-03-21T19:10:30.516Z,4.00
2018-03-21T19:12:58.320Z,4.00
2018-03-21T19:15:26.351Z,3.90
2018-03-21T19:17:54.471Z,4.00
2018-03-21T19:20:23.173Z,3.90
2018-03-21T19:22:50.996Z,3.90
2018-03-21T19:25:18.923Z,3.80
2018-03-21T19:27:46.692Z,3.90
2018-03-21T19:30:14.428Z,3.80
2018-03-21T19:32:42.475Z,3.70
2018-03-21T19:35:10.906Z,3.70
2018-03-21T19:37:39.265Z,3.70
2018-03-21T19:40:07.891Z,3.60
2018-03-21T19:42:54.632Z,3.60
2018-03-21T19:45:23.806Z,3.60
2018-03-21T19:47:52.932Z,3.50
2018-03-21T19:50:21.459Z,3.50
2018-03-21T19:52:49.166Z,3.50
2018-03-21T19:55:17.726Z,3.60
2018-03-21T19:57:46.403Z,3.50
2018-03-21T20:00:14.174Z,3.50
2018-03-21T20:02:41.960Z,3.50
2018-03-21T20:05:09.932Z,3.40
2018-03-21T20:07:38.410Z,3.40
2018-03-21T20:10:07.469Z,3.50
2018-03-21T20:12:35.782Z,3.40
2018-03-21T20:15:03.916Z,3.40
2018-03-21T20:17:31.807Z,3.40
2018-03-21T20:20:00.047Z,3.50
2018-03-21T20:22:27.850Z,3.40
2018-03-21T20:24:55.755Z,3.30
2018-03-21T20:27:24.045Z,3.40
2018-03-21T20:29:51.995Z,3.40
2018-03-21T20:32:20.531Z,3.40
2018-03-21T20:34:49.007Z,3.30
2018-03-21T20:37:17.567Z,3.10
2018-03-21T20:39:45.486Z,3.10
2018-03-21T20:42:14.800Z,3.00
2018-03-21T20:44:43.536Z,3.00
2018-03-21T20:47:12.454Z,2.80
2018-03-21T20:49:41.577Z,2.90
2018-03-21T20:52:10.102Z,2.90
2018-03-21T20:54:38.019Z,2.80
2018-03-21T20:57:05.808Z,2.80
2018-03-21T20:59:33.771Z,2.70
2018-03-21T21:02:01.609Z,2.60
2018-03-21T21:04:29.466Z,2.60
2018-03-21T21:06:58.283Z,2.40
2018-03-21T21:09:26.166Z,2.40
2018-03-21T21:11:54.611Z,2.30
2018-03-21T21:14:23.086Z,2.40
2018-03-21T21:16:52.567Z,2.30
2018-03-21T21:19:21.197Z,2.30
2018-03-21T21:21:49.038Z,2.40
2018-03-21T21:24:16.844Z,2.40
2018-03-21T21:26:44.562Z,2.40
2018-03-21T21:29:13.822Z,2.20
2018-03-21T21:31:41.701Z,2.20
2018-03-21T21:34:09.464Z,2.20
2018-03-21T21:36:37.198Z,2.30
2018-03-21T21:39:04.979Z,2.20
2018-03-21T21:41:33.851Z,2.20
2018-03-21T21:44:01.802Z,2.30
2018-03-21T21:46:29.563Z,2.40
2018-03-21T21:48:57.372Z,2.40
2018-03-21T21:51:25.695Z,2.50
2018-03-21T21:53:54.116Z,2.30
2018-03-21T21:56:21.876Z,2.30
2018-03-21T21:58:51.681Z,2.20
2018-03-21T22:01:19.569Z,2.20
2018-03-21T22:03:47.317Z,2.20
2018-03-21T22:06:15.055Z,2.20
2018-03-21T22:08:42.701Z,2.20
2018-03-21T22:11:11.333Z,2.10
2018-03-21T22:13:39.123Z,2.10
2018-03-21T22:16:07.791Z,2.00
2018-03-21T22:18:35.502Z,2.10
2018-03-21T22:21:03.222Z,2.00
2018-03-21T22:23:30.941Z,2.00
2018-03-21T22:25:58.741Z,2.00
2018-03-21T22:28:26.451Z,2.00
2018-03-21T22:30:54.271Z,2.00
2018-03-21T22:33:22.990Z,2.00
2018-03-21T22:35:50.690Z,2.00
2018-03-21T22:38:18.464Z,2.00
2018-03-21T22:40:46.148Z,1.90
2018-03-21T22:43:14.715Z,1.90
2018-03-21T22:45:42.456Z,1.90
2018-03-21T22:48:10.154Z,2.00
2018-03-21T22:50:37.866Z,1.90
2018-03-21T22:53:05.598Z,2.00
2018-03-21T22:55:33.383Z,1.90
2018-03-21T22:58:01.734Z,1.80
2018-03-21T23:00:29.440Z,1.80
2018-03-21T23:02:58.092Z,1.80
2018-03-21T23:05:26.588Z,1.70
2018-03-21T23:07:54.297Z,1.70
2018-03-21T23:10:21.996Z,1.70
2018-03-21T23:12:50.443Z,1.80
2018-03-21T23:15:18.160Z,1.80
2018-03-21T23:17:45.836Z,1.70
2018-03-21T23:20:13.723Z,1.70
2018-03-21T23:22:41.417Z,1.70
2018-03-21T23:25:09.187Z,1.80
2018-03-21T23:27:36.840Z,1.90
2018-03-21T23:30:04.532Z,2.00
2018-03-21T23:32:32.284Z,2.10
2018-03-21T23:35:00.025Z,2.10
2018-03-21T23:37:27.783Z,2.30
2018-03-21T23:39:55.479Z,2.20
2018-03-21T23:42:24.196Z,2.20
2018-03-21T23:44:51.875Z,2.20
2018-03-21T23:47:19.616Z,2.20
2018-03-21T23:49:47.347Z,2.30
2018-03-21T23:52:15.631Z,2.30
2018-03-21T23:54:44.068Z,2.30
2018-03-21T23:57:11.782Z,2.30
2018-03-21T23:59:40.266Z,2.40
